Time;durP1;ratioP1;P1;durP2;ratioP2;P2;SDS_P1;SDS_P2;PMS_P1;PMS_P2;Temp;Humidity;BMP_temperature;BMP_pressure;BME280_temperature;BME280_humidity;BME280_pressure;Samples;Min_cycle;Max_cycle;Signal;HPM_P1;HPM_P2
2023/11/17 00:02:24;;;;;;;3.08;2.65;;;;;;;2.54;100.00;100394.31;4733139;30;20215;-67
2023/11/17 00:05:15;;;;;;;4.20;1.90;;;;;;;2.64;100.00;100399.53;4749035;30;20742;-68
2023/11/17 00:08:04;;;;;;;2.72;2.38;;;;;;;2.67;100.00;100409.03;4722106;30;20208;-67
2023/11/17 00:13:49;;;;;;;7.45;2.47;;;;;;;2.85;100.00;100407.09;4733972;30;20224;-68
2023/11/17 00:16:57;;;;;;;5.32;2.70;;;;;;;2.90;100.00;100410.97;4736569;30;20205;-68
2023/11/17 00:19:44;;;;;;;2.50;2.30;;;;;;;2.88;100.00;100404.09;4746976;30;20196;-65
2023/11/17 00:22:35;;;;;;;1.90;1.55;;;;;;;2.97;100.00;100421.81;4732427;30;20299;-68
2023/11/17 00:25:33;;;;;;;4.95;2.45;;;;;;;3.11;100.00;100417.63;4734109;30;20206;-67
2023/11/17 00:28:25;;;;;;;3.22;2.85;;;;;;;3.20;100.00;100422.00;4745721;30;20196;-68
2023/11/17 00:31:04;;;;;;;3.92;1.52;;;;;;;3.24;100.00;100418.00;4737038;30;20231;-66
2023/11/17 00:33:49;;;;;;;1.77;1.35;;;;;;;3.37;100.00;100418.34;4734063;30;20255;-66
2023/11/17 00:36:31;;;;;;;2.63;2.25;;;;;;;3.46;100.00;100418.16;4733573;30;20220;-68
2023/11/17 00:39:26;;;;;;;3.60;2.15;;;;;;;3.51;100.00;100425.69;4746072;30;20242;-67
2023/11/17 00:42:14;;;;;;;2.20;2.00;;;;;;;3.57;100.00;100427.69;4734124;30;20217;-68
2023/11/17 00:45:07;;;;;;;2.75;1.40;;;;;;;3.62;100.00;100421.84;4739760;30;20224;-67
2023/11/17 00:47:52;;;;;;;2.90;2.70;;;;;;;3.55;100.00;100423.50;4734404;30;20747;-66
2023/11/17 00:53:48;;;;;;;2.65;2.45;;;;;;;3.73;100.00;100424.13;4751280;30;20242;-66
2023/11/17 00:56:35;;;;;;;2.50;1.95;;;;;;;3.73;99.73;100429.50;4737059;30;20220;-68
2023/11/17 00:59:13;;;;;;;3.42;2.42;;;;;;;3.63;100.00;100424.31;4748348;30;20220;-67
2023/11/17 01:02:01;;;;;;;1.55;1.45;;;;;;;3.69;100.00;100429.00;4735171;30;20629;-67
2023/11/17 01:07:52;;;;;;;2.47;1.45;;;;;;;3.82;100.00;100434.69;4750652;30;20211;-66
2023/11/17 01:10:28;;;;;;;2.85;2.65;;;;;;;3.86;99.73;100436.03;4735879;30;20324;-67
2023/11/17 01:13:26;;;;;;;2.83;2.10;;;;;;;3.92;98.94;100443.34;4750694;30;20238;-66
2023/11/17 01:16:16;;;;;;;3.63;2.33;;;;;;;3.94;98.78;100440.50;4733049;30;20211;-66
2023/11/17 01:19:07;;;;;;;1.98;1.67;;;;;;;3.78;98.62;100440.53;4750876;30;20212;-67
2023/11/17 01:21:57;;;;;;;2.85;1.55;;;;;;;3.80;98.79;100441.22;4736127;30;20688;-66
2023/11/17 01:24:44;;;;;;;1.70;1.08;;;;;;;3.90;99.62;100437.34;4734549;30;20314;-66
2023/11/17 01:27:30;;;;;;;2.88;1.67;;;;;;;3.87;98.50;100448.38;4750123;30;20678;-65
2023/11/17 01:30:18;;;;;;;3.17;1.15;;;;;;;3.85;97.79;100453.09;4749709;30;20200;-65
2023/11/17 01:33:03;;;;;;;1.30;1.02;;;;;;;3.85;98.69;100450.41;4734859;30;20196;-66
2023/11/17 01:36:00;;;;;;;3.38;2.10;;;;;;;3.92;98.70;100445.22;4733413;30;20205;-67
2023/11/17 01:38:53;;;;;;;2.15;2.00;;;;;;;3.83;97.94;100455.06;4728949;30;20720;-69
2023/11/17 01:41:47;;;;;;;1.73;1.63;;;;;;;3.83;98.29;100446.22;4734155;30;20205;-68
2023/11/17 01:44:43;;;;;;;2.65;1.70;;;;;;;3.89;98.30;100457.09;4745061;30;20304;-67
2023/11/17 01:47:37;;;;;;;1.95;1.20;;;;;;;3.98;98.35;100463.25;4731699;30;20212;-67
2023/11/17 01:53:24;;;;;;;1.80;1.50;;;;;;;3.98;96.54;100465.09;4733187;30;20612;-67
2023/11/17 01:56:09;;;;;;;1.15;1.02;;;;;;;3.91;97.56;100465.78;4735988;30;20219;-69
2023/11/17 01:58:57;;;;;;;2.00;1.50;;;;;;;4.03;97.48;100468.09;4734269;30;20220;-68
2023/11/17 02:01:37;;;;;;;2.20;1.40;;;;;;;4.02;97.37;100467.25;4735788;30;20707;-67
2023/11/17 02:08:10;;;;;;;1.58;0.98;;;;;;;4.12;96.78;100467.06;4750614;30;20208;-68
2023/11/17 02:10:59;;;;;;;1.55;1.45;;;;;;;3.98;97.93;100465.09;4747373;30;20303;-65
2023/11/17 02:13:49;;;;;;;1.83;1.17;;;;;;;4.00;98.03;100468.44;4734929;30;20234;-68
2023/11/17 02:16:42;;;;;;;3.15;1.17;;;;;;;4.02;97.16;100466.44;4735815;30;20250;-68
2023/11/17 02:19:54;;;;;;;1.70;1.48;;;;;;;4.07;97.62;100461.38;4737701;30;20244;-68
2023/11/17 02:22:49;;;;;;;2.47;1.60;;;;;;;4.03;98.15;100465.41;4735590;30;20215;-67
2023/11/17 02:25:44;;;;;;;3.50;1.23;;;;;;;4.06;97.79;100462.44;4741669;30;20262;-69
2023/11/17 02:28:42;;;;;;;1.70;1.60;;;;;;;4.05;97.64;100466.09;4738416;30;20228;-66
2023/11/17 02:31:33;;;;;;;1.50;1.40;;;;;;;4.01;98.23;100472.81;4731687;30;20208;-66
2023/11/17 02:34:24;;;;;;;1.63;1.13;;;;;;;4.02;97.50;100471.81;4730516;30;20281;-67
2023/11/17 02:37:19;;;;;;;1.20;1.00;;;;;;;4.11;97.99;100470.78;4747027;30;20219;-66
2023/11/17 02:40:18;;;;;;;2.53;1.30;;;;;;;4.12;97.34;100470.59;4731857;30;20235;-64
2023/11/17 02:43:07;;;;;;;2.67;1.45;;;;;;;4.06;97.53;100473.13;4732510;30;20331;-66
2023/11/17 02:46:09;;;;;;;2.22;1.10;;;;;;;4.06;98.03;100478.50;4734202;30;20212;-67
2023/11/17 02:48:52;;;;;;;4.15;1.42;;;;;;;3.98;97.76;100481.16;4748427;30;20204;-68
2023/11/17 02:51:51;;;;;;;4.53;2.08;;;;;;;4.08;97.48;100476.47;4748869;30;20710;-66
2023/11/17 02:54:37;;;;;;;1.58;1.48;;;;;;;4.01;97.80;100484.34;4733000;30;20776;-66
2023/11/17 02:57:20;;;;;;;1.92;1.17;;;;;;;4.00;98.36;100482.69;4741666;30;20204;-66
2023/11/17 03:00:22;;;;;;;2.10;1.10;;;;;;;4.09;97.57;100478.13;4724450;30;20651;-67
2023/11/17 03:03:08;;;;;;;3.05;2.03;;;;;;;4.13;97.35;100479.47;4746217;30;20569;-67
2023/11/17 03:19:10;;;;;;;1.63;1.52;;;;;;;4.00;100.00;100500.56;6155621;22;1688403;-66
2023/11/17 03:21:42;;;;;;;2.58;1.80;;;;;;;4.03;100.00;100495.72;6223889;23;20669;-68
2023/11/17 03:24:14;;;;;;;2.28;1.63;;;;;;;4.04;100.00;100501.91;6204845;23;20189;-68
2023/11/17 03:26:44;;;;;;;2.08;1.30;;;;;;;3.92;100.00;100502.25;6191929;23;20208;-66
2023/11/17 03:29:15;;;;;;;4.22;1.40;;;;;;;3.95;100.00;100503.75;6193817;23;20557;-67
2023/11/17 03:31:48;;;;;;;2.88;1.23;;;;;;;3.89;100.00;100509.78;6193355;23;20224;-66
2023/11/17 03:34:23;;;;;;;2.90;1.40;;;;;;;3.89;100.00;100510.63;6193618;23;20524;-66
2023/11/17 03:36:56;;;;;;;1.73;1.48;;;;;;;3.90;100.00;100509.63;6193179;23;20149;-66
2023/11/17 03:39:26;;;;;;;1.60;1.33;;;;;;;3.77;100.00;100511.97;6193446;23;20212;-66
2023/11/17 03:41:56;;;;;;;4.15;1.90;;;;;;;3.79;100.00;100509.13;6191732;23;20172;-67
2023/11/17 03:44:25;;;;;;;4.20;2.47;;;;;;;3.72;100.00;100513.47;6191793;23;20197;-67
2023/11/17 03:46:54;;;;;;;1.73;1.63;;;;;;;3.72;100.00;100519.69;6193857;23;20188;-67
2023/11/17 03:49:27;;;;;;;2.65;1.52;;;;;;;3.76;100.00;100514.81;6191655;23;20672;-66
2023/11/17 03:51:57;;;;;;;4.30;1.75;;;;;;;3.72;100.00;100511.66;6191552;23;20161;-68
2023/11/17 03:54:26;;;;;;;2.00;1.80;;;;;;;3.76;100.00;100512.13;6192659;23;20185;-67
2023/11/17 03:56:56;;;;;;;2.72;1.98;;;;;;;3.86;100.00;100521.69;6191107;23;20576;-68
2023/11/17 03:59:25;;;;;;;6.82;2.40;;;;;;;3.75;100.00;100519.31;6192789;23;20493;-68
2023/11/17 04:01:54;;;;;;;2.60;2.40;;;;;;;3.76;100.00;100515.66;6191068;23;20173;-69
2023/11/17 04:04:25;;;;;;;7.00;2.15;;;;;;;3.79;100.00;100520.66;6195014;23;20217;-69
2023/11/17 04:06:57;;;;;;;2.55;2.15;;;;;;;3.72;100.00;100525.03;6206950;23;20176;-67
2023/11/17 04:09:27;;;;;;;2.28;1.25;;;;;;;3.73;100.00;100536.53;6193980;23;20160;-68
2023/11/17 04:12:01;;;;;;;3.35;2.25;;;;;;;3.68;100.00;100534.38;6193604;23;20510;-66
2023/11/17 04:14:38;;;;;;;5.85;2.28;;;;;;;3.64;100.00;100538.38;6192467;23;20187;-69
2023/11/17 04:17:10;;;;;;;3.78;1.98;;;;;;;3.65;100.00;100525.84;6192710;23;20149;-66
2023/11/17 04:19:41;;;;;;;2.13;1.20;;;;;;;3.70;100.00;100526.19;6186893;23;20543;-66
2023/11/17 04:22:12;;;;;;;4.80;2.17;;;;;;;3.81;100.00;100540.09;6184704;23;20154;-67
2023/11/17 04:24:42;;;;;;;3.47;2.13;;;;;;;3.69;100.00;100546.75;6185706;23;20677;-65
2023/11/17 04:27:10;;;;;;;3.15;2.20;;;;;;;3.67;100.00;100543.41;6186518;23;20683;-67
2023/11/17 04:29:40;;;;;;;2.17;1.88;;;;;;;3.76;100.00;100537.06;6186003;23;20162;-68
2023/11/17 04:32:09;;;;;;;3.40;2.33;;;;;;;3.76;100.00;100533.56;6186119;23;20154;-66
2023/11/17 04:34:39;;;;;;;3.28;2.97;;;;;;;3.90;100.00;100533.72;6185656;23;20654;-66
2023/11/17 04:37:09;;;;;;;3.80;1.90;;;;;;;3.88;100.00;100533.03;6185795;23;20618;-65
2023/11/17 04:39:38;;;;;;;3.05;1.88;;;;;;;3.86;100.00;100536.91;6186390;23;20532;-66
2023/11/17 04:42:08;;;;;;;2.33;2.13;;;;;;;4.03;100.00;100548.41;6185655;23;20160;-68
2023/11/17 04:44:38;;;;;;;2.20;1.50;;;;;;;3.98;100.00;100545.41;6185762;23;20522;-66
2023/11/17 04:47:09;;;;;;;2.67;2.47;;;;;;;4.00;100.00;100546.09;6186174;23;20474;-67
2023/11/17 04:49:38;;;;;;;5.38;1.50;;;;;;;4.04;100.00;100556.28;6186080;23;20157;-66
2023/11/17 04:52:09;;;;;;;2.65;1.60;;;;;;;3.78;100.00;100555.59;6186068;23;20528;-66
2023/11/17 04:54:41;;;;;;;2.67;2.47;;;;;;;3.90;100.00;100559.66;6185667;23;20186;-66
2023/11/17 04:57:10;;;;;;;2.50;1.42;;;;;;;3.78;100.00;100561.81;6186013;23;20245;-69
2023/11/17 04:59:39;;;;;;;3.20;2.70;;;;;;;3.79;100.00;100565.31;6184636;23;20481;-66
2023/11/17 05:02:08;;;;;;;2.35;2.05;;;;;;;3.77;100.00;100560.16;6185835;23;20161;-67
2023/11/17 05:04:37;;;;;;;4.60;2.17;;;;;;;3.87;100.00;100566.16;6185679;23;20312;-68
2023/11/17 05:07:07;;;;;;;9.07;4.20;;;;;;;3.94;100.00;100566.34;6185746;23;20150;-68
2023/11/17 05:09:37;;;;;;;3.58;2.03;;;;;;;3.84;100.00;100571.00;6185619;23;20150;-66
2023/11/17 05:12:07;;;;;;;1.73;1.55;;;;;;;3.74;100.00;100571.19;6186286;23;20661;-68
2023/11/17 05:14:37;;;;;;;2.38;2.17;;;;;;;3.72;100.00;100583.91;6185932;23;20265;-68
2023/11/17 05:17:09;;;;;;;3.17;2.50;;;;;;;3.74;100.00;100591.75;6185916;23;20158;-67
2023/11/17 05:19:40;;;;;;;3.75;1.80;;;;;;;3.73;100.00;100584.72;6185657;23;20236;-69
2023/11/17 05:22:10;;;;;;;3.40;1.85;;;;;;;3.71;100.00;100592.09;6185386;23;20490;-67
2023/11/17 05:24:39;;;;;;;4.55;2.10;;;;;;;3.65;100.00;100590.91;6185478;23;20187;-66
2023/11/17 05:27:08;;;;;;;2.25;1.52;;;;;;;3.64;100.00;100591.91;6185339;23;20542;-68
2023/11/17 05:29:37;;;;;;;1.92;1.67;;;;;;;3.68;100.00;100592.44;6185008;23;20174;-66
2023/11/17 05:32:07;;;;;;;4.65;1.95;;;;;;;3.66;100.00;100595.25;6185102;23;20228;-68
2023/11/17 05:34:36;;;;;;;1.30;1.02;;;;;;;3.65;100.00;100604.28;6185474;23;20670;-69
2023/11/17 05:37:05;;;;;;;2.67;2.15;;;;;;;3.56;100.00;100593.72;6185560;23;20213;-67
2023/11/17 05:39:35;;;;;;;2.28;2.08;;;;;;;3.53;100.00;100599.41;6185353;23;20233;-66
2023/11/17 05:42:04;;;;;;;1.95;1.48;;;;;;;3.52;100.00;100601.25;6185443;23;20665;-66
2023/11/17 05:44:34;;;;;;;4.75;2.35;;;;;;;3.63;100.00;100606.28;6185276;23;20185;-67
2023/11/17 05:47:03;;;;;;;3.42;2.05;;;;;;;3.67;100.00;100601.44;6185243;23;20475;-66
2023/11/17 05:49:33;;;;;;;1.77;1.48;;;;;;;3.71;100.00;100597.44;6185368;23;20263;-64
2023/11/17 05:52:02;;;;;;;2.53;1.98;;;;;;;3.71;100.00;100608.97;6185418;23;20150;-67
2023/11/17 05:54:31;;;;;;;3.35;2.70;;;;;;;3.72;100.00;100610.66;6185158;23;20240;-67
2023/11/17 05:57:01;;;;;;;3.58;1.40;;;;;;;3.77;100.00;100611.00;6185185;23;20185;-67
2023/11/17 05:59:30;;;;;;;2.65;1.35;;;;;;;3.73;100.00;100619.50;6185266;23;20233;-67
2023/11/17 06:02:02;;;;;;;2.22;1.90;;;;;;;3.82;100.00;100611.34;6184839;23;20180;-67
2023/11/17 06:04:31;;;;;;;2.25;2.00;;;;;;;3.90;100.00;100622.06;6185016;23;20561;-69
2023/11/17 06:07:00;;;;;;;2.10;1.83;;;;;;;3.82;100.00;100623.91;6185084;23;20177;-67
2023/11/17 06:09:31;;;;;;;3.47;2.35;;;;;;;3.80;100.00;100621.38;6185242;23;20629;-68
2023/11/17 06:12:03;;;;;;;2.65;1.70;;;;;;;3.86;100.00;100625.22;6184135;23;20174;-67
2023/11/17 06:14:33;;;;;;;2.10;1.42;;;;;;;3.81;100.00;100625.72;6184708;23;20690;-68
2023/11/17 06:17:04;;;;;;;3.22;2.10;;;;;;;3.82;100.00;100632.75;6186353;23;20200;-66
2023/11/17 06:19:36;;;;;;;1.90;1.10;;;;;;;3.65;100.00;100652.44;6186927;23;20181;-67
2023/11/17 06:22:06;;;;;;;3.58;2.13;;;;;;;3.68;100.00;100637.91;6186329;23;20252;-68
2023/11/17 06:24:38;;;;;;;2.13;1.85;;;;;;;3.72;100.00;100628.56;6185340;23;20220;-67
2023/11/17 06:27:10;;;;;;;4.05;2.63;;;;;;;3.76;100.00;100636.09;6190317;23;20184;-67
2023/11/17 06:29:39;;;;;;;2.20;2.00;;;;;;;3.64;100.00;100642.75;6190825;23;20178;-68
2023/11/17 06:32:09;;;;;;;2.22;1.67;;;;;;;3.64;100.00;100637.38;6189760;23;20154;-67
2023/11/17 06:34:38;;;;;;;2.90;2.70;;;;;;;3.64;100.00;100634.72;6188777;23;20186;-66
2023/11/17 06:37:07;;;;;;;3.55;2.05;;;;;;;3.68;100.00;100641.41;6188769;23;20149;-66
2023/11/17 06:39:36;;;;;;;3.22;2.92;;;;;;;3.70;100.00;100639.41;6187156;23;20168;-66
2023/11/17 06:42:08;;;;;;;2.58;2.35;;;;;;;3.74;100.00;100639.91;6185935;23;20154;-69
2023/11/17 06:44:37;;;;;;;2.00;1.77;;;;;;;3.86;100.00;100646.66;6186999;23;20187;-68
2023/11/17 06:47:06;;;;;;;1.88;1.48;;;;;;;3.76;100.00;100649.47;6186235;23;20559;-67
2023/11/17 06:49:37;;;;;;;2.70;2.50;;;;;;;3.78;100.00;100652.81;6186085;23;20174;-68
2023/11/17 06:52:08;;;;;;;2.03;1.40;;;;;;;3.83;100.00;100653.16;6185387;23;20208;-65
2023/11/17 06:54:37;;;;;;;2.95;2.67;;;;;;;3.84;100.00;100646.81;6184498;23;20581;-67
2023/11/17 06:57:08;;;;;;;3.40;2.95;;;;;;;3.99;100.00;100659.53;6184711;23;20602;-67
2023/11/17 06:59:36;;;;;;;3.60;2.00;;;;;;;4.06;100.00;100657.88;6184863;23;20334;-67
2023/11/17 07:02:06;;;;;;;4.03;3.08;;;;;;;3.92;100.00;100662.88;6183964;23;20229;-68
2023/11/17 07:04:35;;;;;;;10.23;1.75;;;;;;;3.81;100.00;100659.69;6184831;23;20223;-66
2023/11/17 07:07:05;;;;;;;2.90;1.95;;;;;;;3.91;100.00;100666.56;6184934;23;20213;-65
2023/11/17 07:09:39;;;;;;;2.38;1.77;;;;;;;3.86;100.00;100676.94;6184597;23;20179;-66
2023/11/17 07:12:10;;;;;;;3.67;1.85;;;;;;;3.89;100.00;100675.75;6184537;23;20562;-66
2023/11/17 07:14:39;;;;;;;3.25;1.90;;;;;;;3.91;100.00;100663.91;6184166;23;20185;-69
2023/11/17 07:17:08;;;;;;;2.05;1.58;;;;;;;4.00;100.00;100672.78;6184106;23;20158;-68
2023/11/17 07:19:37;;;;;;;4.93;2.33;;;;;;;4.03;100.00;100677.78;6184200;23;20534;-67
2023/11/17 07:22:07;;;;;;;3.85;2.70;;;;;;;4.11;100.00;100683.16;6184141;23;20173;-66
2023/11/17 07:24:36;;;;;;;10.02;1.92;;;;;;;4.27;100.00;100685.00;6184888;23;20188;-64
2023/11/17 07:27:07;;;;;;;2.85;2.30;;;;;;;4.31;100.00;100683.66;6184407;23;20158;-66
2023/11/17 07:29:38;;;;;;;3.20;2.45;;;;;;;4.29;100.00;100685.69;6184795;23;20173;-67
2023/11/17 07:32:07;;;;;;;2.35;2.05;;;;;;;4.33;100.00;100689.69;6185309;23;20154;-66
2023/11/17 07:34:36;;;;;;;3.97;2.97;;;;;;;4.43;100.00;100690.38;6185022;23;20533;-67
2023/11/17 07:37:05;;;;;;;4.75;1.90;;;;;;;4.29;100.00;100685.69;6185490;23;20689;-68
2023/11/17 07:39:34;;;;;;;2.20;1.48;;;;;;;4.37;100.00;100691.03;6185260;23;20180;-65
2023/11/17 07:42:04;;;;;;;2.60;1.75;;;;;;;4.24;100.00;100690.69;6184857;23;20172;-68
2023/11/17 07:44:36;;;;;;;6.85;2.47;;;;;;;4.35;100.00;100693.91;6184980;23;20213;-66
2023/11/17 07:47:06;;;;;;;2.50;1.80;;;;;;;4.33;100.00;100700.41;6185198;23;20150;-66
2023/11/17 07:49:35;;;;;;;2.53;1.63;;;;;;;4.24;100.00;100704.94;6184880;23;20224;-68
2023/11/17 07:52:04;;;;;;;2.13;1.83;;;;;;;4.28;100.00;100708.13;6184888;23;20249;-66
2023/11/17 07:54:33;;;;;;;1.70;1.40;;;;;;;4.28;100.00;100716.16;6185524;23;20185;-67
2023/11/17 07:57:02;;;;;;;2.58;2.10;;;;;;;4.32;100.00;100714.81;6185997;23;20150;-68
2023/11/17 07:59:31;;;;;;;2.53;1.60;;;;;;;4.33;100.00;100721.84;6186030;23;20235;-68
2023/11/17 08:02:00;;;;;;;5.38;3.40;;;;;;;4.31;100.00;100723.84;6185956;23;20150;-68
2023/11/17 08:04:30;;;;;;;4.50;2.00;;;;;;;4.24;100.00;100720.16;6186072;23;20177;-68
2023/11/17 08:07:01;;;;;;;2.08;1.40;;;;;;;4.36;100.00;100732.22;6185991;23;20149;-69
2023/11/17 08:09:33;;;;;;;7.13;2.45;;;;;;;4.39;100.00;100737.25;6185823;23;20173;-67
2023/11/17 08:12:02;;;;;;;1.80;1.63;;;;;;;4.39;100.00;100742.63;6185825;23;20221;-69
2023/11/17 08:14:31;;;;;;;3.05;2.50;;;;;;;4.50;100.00;100736.94;6186097;23;20185;-67
2023/11/17 08:17:00;;;;;;;2.63;2.10;;;;;;;4.35;100.00;100742.13;6186033;23;20228;-68
2023/11/17 08:19:30;;;;;;;3.00;1.83;;;;;;;4.47;100.00;100739.09;6186631;23;20668;-68
2023/11/17 08:21:59;;;;;;;2.88;2.67;;;;;;;4.43;100.00;100743.13;6185811;23;20158;-67
2023/11/17 08:24:28;;;;;;;4.22;2.70;;;;;;;4.50;100.00;100752.19;6186182;23;20182;-68
2023/11/17 08:26:56;;;;;;;3.65;2.92;;;;;;;4.56;100.00;100752.34;6186157;23;20208;-64
2023/11/17 08:29:25;;;;;;;3.42;3.10;;;;;;;4.65;100.00;100748.66;6186824;23;20252;-68
2023/11/17 08:31:54;;;;;;;3.03;2.05;;;;;;;4.64;100.00;100762.25;6185986;23;20188;-68
2023/11/17 08:34:24;;;;;;;2.08;1.88;;;;;;;4.66;100.00;100761.06;6186169;23;20185;-66
2023/11/17 08:36:54;;;;;;;2.53;2.10;;;;;;;4.66;100.00;100758.38;6184773;23;20224;-67
2023/11/17 08:39:26;;;;;;;1.83;1.70;;;;;;;4.59;100.00;100764.59;6187073;23;20227;-68
2023/11/17 08:41:56;;;;;;;2.20;1.80;;;;;;;4.76;100.00;100766.25;6189238;23;20185;-66
2023/11/17 08:44:27;;;;;;;2.30;1.67;;;;;;;4.70;100.00;100773.13;6188651;23;20208;-68
2023/11/17 08:46:56;;;;;;;5.03;3.00;;;;;;;4.60;100.00;100774.31;6187407;23;20156;-68
2023/11/17 08:49:25;;;;;;;1.80;1.30;;;;;;;4.73;100.00;100786.19;6188136;23;20185;-69
2023/11/17 08:51:57;;;;;;;4.00;2.35;;;;;;;4.77;100.00;100784.03;6187940;23;20150;-69
2023/11/17 08:54:26;;;;;;;3.25;2.92;;;;;;;4.70;100.00;100789.19;6188017;23;20185;-69
2023/11/17 08:56:58;;;;;;;3.78;2.22;;;;;;;4.72;100.00;100789.03;6187397;23;20153;-69
2023/11/17 08:59:29;;;;;;;3.00;1.65;;;;;;;4.64;100.00;100800.59;6188137;23;20157;-69
2023/11/17 09:01:58;;;;;;;1.60;1.33;;;;;;;4.77;100.00;100798.25;6187696;23;20237;-70
2023/11/17 09:04:30;;;;;;;1.65;1.08;;;;;;;4.78;100.00;100802.63;6188014;23;20239;-70
2023/11/17 09:07:04;;;;;;;2.28;1.35;;;;;;;4.96;100.00;100809.66;6187296;23;20150;-68
2023/11/17 09:09:33;;;;;;;2.17;1.42;;;;;;;5.03;100.00;100805.31;6188067;23;20149;-70
2023/11/17 09:12:04;;;;;;;2.08;1.33;;;;;;;5.05;100.00;100808.66;6187481;23;20176;-69
2023/11/17 09:14:34;;;;;;;3.15;2.20;;;;;;;5.01;100.00;100818.03;6187624;23;20185;-69
2023/11/17 09:17:06;;;;;;;1.48;1.23;;;;;;;5.02;100.00;100814.34;6187805;23;20200;-69
2023/11/17 09:19:37;;;;;;;4.40;1.75;;;;;;;5.07;100.00;100817.38;6187831;23;20150;-69
2023/11/17 09:22:08;;;;;;;1.50;1.15;;;;;;;5.01;100.00;100823.41;6187898;23;20177;-71
2023/11/17 09:24:38;;;;;;;5.22;2.30;;;;;;;5.10;100.00;100820.53;6188258;23;20193;-70
2023/11/17 09:27:09;;;;;;;1.38;1.20;;;;;;;4.89;100.00;100820.19;6187013;23;20178;-70
2023/11/17 09:29:38;;;;;;;4.50;2.63;;;;;;;4.99;100.00;100830.75;6186771;23;20673;-70
2023/11/17 09:32:08;;;;;;;2.45;1.45;;;;;;;5.15;100.00;100846.88;6187200;23;20174;-71
2023/11/17 09:34:37;;;;;;;1.65;1.20;;;;;;;5.05;100.00;100835.47;6187012;23;20185;-70
2023/11/17 09:37:10;;;;;;;1.60;1.13;;;;;;;4.94;100.00;100836.63;6186752;23;20244;-70
2023/11/17 09:39:40;;;;;;;3.50;2.22;;;;;;;4.97;100.00;100830.94;6187417;23;20149;-70
2023/11/17 09:42:10;;;;;;;3.40;1.10;;;;;;;5.01;100.00;100834.13;6185872;23;20201;-69
2023/11/17 09:44:41;;;;;;;3.08;2.00;;;;;;;4.86;100.00;100825.91;6186749;23;20188;-70
2023/11/17 09:47:21;;;;;;;2.38;1.02;;;;;;;5.04;100.00;100831.09;6186921;23;20149;-70
2023/11/17 09:49:53;;;;;;;3.88;1.70;;;;;;;5.08;100.00;100830.59;6189042;23;20262;-71
2023/11/17 09:52:25;;;;;;;3.00;2.47;;;;;;;5.04;100.00;100836.47;6189978;23;20161;-69
2023/11/17 09:54:54;;;;;;;7.32;4.30;;;;;;;5.02;100.00;100835.81;6186975;23;20185;-70
2023/11/17 09:57:24;;;;;;;2.65;1.73;;;;;;;5.12;100.00;100836.47;6187641;23;20215;-70
2023/11/17 09:59:57;;;;;;;2.42;1.52;;;;;;;5.16;100.00;100843.19;6187355;23;20145;-70
2023/11/17 10:02:26;;;;;;;2.80;2.03;;;;;;;5.03;100.00;100829.44;6187218;23;20153;-68
2023/11/17 10:04:55;;;;;;;1.65;1.48;;;;;;;5.07;100.00;100849.56;6187549;23;20240;-69
2023/11/17 10:07:27;;;;;;;1.80;1.60;;;;;;;5.12;100.00;100842.69;6186045;23;20177;-69
2023/11/17 10:10:01;;;;;;;1.80;1.42;;;;;;;5.23;100.00;100838.78;6185534;23;20161;-69
2023/11/17 10:12:32;;;;;;;1.42;1.20;;;;;;;5.42;99.71;100849.19;6186395;23;20160;-69
2023/11/17 10:15:06;;;;;;;2.75;1.50;;;;;;;5.41;99.85;100858.25;6185559;23;20177;-69
2023/11/17 10:17:37;;;;;;;3.08;2.80;;;;;;;5.57;99.20;100842.09;6185787;23;20228;-70
2023/11/17 10:20:12;;;;;;;4.25;3.65;;;;;;;5.50;98.20;100857.25;6184627;23;20165;-68
2023/11/17 10:22:43;;;;;;;1.95;1.65;;;;;;;5.44;99.07;100860.59;6185553;23;20236;-69
2023/11/17 10:25:13;;;;;;;3.65;2.10;;;;;;;5.60;98.57;100855.22;6185145;23;20569;-68
2023/11/17 10:27:44;;;;;;;2.20;1.35;;;;;;;5.57;98.08;100857.38;6185915;23;20166;-68
2023/11/17 10:30:15;;;;;;;4.78;1.70;;;;;;;5.57;97.31;100858.22;6185756;23;20575;-69
2023/11/17 10:32:57;;;;;;;1.25;1.13;;;;;;;5.57;97.94;100860.91;6185696;23;20219;-69
2023/11/17 10:35:43;;;;;;;5.35;2.17;;;;;;;5.62;97.62;100863.06;6185595;23;20535;-68
2023/11/17 10:38:19;;;;;;;2.55;1.80;;;;;;;5.69;96.96;100864.91;6185749;23;20161;-70
2023/11/17 10:40:48;;;;;;;2.35;1.42;;;;;;;5.57;96.76;100858.22;6185215;23;20228;-69
2023/11/17 10:43:17;;;;;;;2.15;1.55;;;;;;;5.65;96.75;100860.06;6184796;23;20669;-70
2023/11/17 10:45:47;;;;;;;1.88;1.33;;;;;;;5.62;97.44;100863.91;6185666;23;20216;-68
2023/11/17 10:48:17;;;;;;;2.85;1.45;;;;;;;5.51;97.24;100858.91;6187182;23;20154;-68
2023/11/17 10:50:46;;;;;;;1.83;1.30;;;;;;;5.55;97.43;100860.25;6189608;23;20180;-68
2023/11/17 10:53:23;;;;;;;2.10;1.48;;;;;;;5.48;97.26;100855.72;6189390;23;20185;-70
2023/11/17 10:55:53;;;;;;;1.88;1.45;;;;;;;5.62;98.21;100861.22;6187754;23;20220;-68
2023/11/17 10:58:22;;;;;;;1.13;1.02;;;;;;;5.53;97.78;100856.88;6187635;23;20490;-69
2023/11/17 11:00:52;;;;;;;2.67;2.28;;;;;;;5.66;97.51;100862.56;6188146;23;20162;-70
2023/11/17 11:03:22;;;;;;;2.13;1.55;;;;;;;5.76;97.78;100857.00;6189573;23;20189;-69
2023/11/17 11:05:58;;;;;;;1.80;1.70;;;;;;;5.75;96.91;100860.72;6187530;23;20181;-69
2023/11/17 11:08:30;;;;;;;2.65;1.15;;;;;;;6.05;96.30;100867.22;6188696;23;20155;-68
2023/11/17 11:11:00;;;;;;;1.85;1.35;;;;;;;6.10;95.45;100864.81;6189355;23;20183;-69
2023/11/17 11:13:30;;;;;;;1.77;1.20;;;;;;;5.89;95.46;100867.25;6189077;23;20186;-69
2023/11/17 11:16:07;;;;;;;1.00;0.90;;;;;;;5.62;96.24;100869.28;6187158;23;20185;-68
2023/11/17 11:18:37;;;;;;;1.40;1.27;;;;;;;5.77;96.77;100868.56;6188092;23;20169;-69
2023/11/17 11:21:08;;;;;;;1.20;0.95;;;;;;;5.80;96.67;100873.63;6187757;23;20158;-69
2023/11/17 11:23:39;;;;;;;6.97;2.60;;;;;;;5.82;96.60;100875.13;6188194;23;20382;-69
2023/11/17 11:26:10;;;;;;;2.00;1.38;;;;;;;5.88;96.60;100877.16;6188024;23;20188;-69
2023/11/17 11:28:41;;;;;;;2.30;1.25;;;;;;;5.97;96.15;100876.13;6190387;23;20238;-69
2023/11/17 11:31:11;;;;;;;1.45;1.08;;;;;;;6.08;96.13;100873.06;6191552;23;20173;-70
2023/11/17 11:33:41;;;;;;;2.35;1.30;;;;;;;6.06;95.82;100884.97;6189632;23;20224;-70
2023/11/17 11:36:11;;;;;;;3.15;2.00;;;;;;;6.09;95.31;100874.75;6190004;23;20172;-69
2023/11/17 11:38:47;;;;;;;2.58;1.27;;;;;;;6.06;94.31;100884.97;6186631;23;20153;-68
2023/11/17 11:41:16;;;;;;;1.58;1.30;;;;;;;5.90;95.87;100883.19;6186682;23;20200;-68
2023/11/17 11:43:46;;;;;;;1.45;1.23;;;;;;;5.98;95.81;100867.06;6186931;23;20522;-67
2023/11/17 11:46:17;;;;;;;3.25;2.95;;;;;;;6.06;95.83;100874.22;6187409;23;20204;-67
2023/11/17 11:48:51;;;;;;;1.38;0.93;;;;;;;6.23;95.38;100889.28;6187878;23;20160;-67
2023/11/17 11:51:23;;;;;;;2.53;2.20;;;;;;;6.28;94.20;100894.97;6186866;23;20645;-68
2023/11/17 11:53:55;;;;;;;1.52;1.02;;;;;;;6.08;94.00;100886.50;6186915;23;20186;-69
2023/11/17 11:56:29;;;;;;;1.77;0.88;;;;;;;6.22;94.58;100894.84;6190347;23;20153;-69
2023/11/17 11:58:59;;;;;;;5.30;1.55;;;;;;;6.23;94.20;100896.50;6191420;23;20233;-69
2023/11/17 12:01:32;;;;;;;1.50;0.85;;;;;;;5.92;94.79;100883.84;6189038;23;20200;-68
2023/11/17 12:04:05;;;;;;;1.55;0.85;;;;;;;5.84;95.29;100891.06;6190474;23;20188;-68
2023/11/17 12:06:36;;;;;;;2.30;1.48;;;;;;;5.96;94.80;100895.91;6190274;23;20157;-69
2023/11/17 12:09:19;;;;;;;1.20;0.82;;;;;;;5.84;95.27;100896.44;6189964;23;20586;-69
2023/11/17 12:11:51;;;;;;;2.78;2.53;;;;;;;6.06;95.40;100901.09;6192048;23;20177;-69
2023/11/17 12:14:26;;;;;;;1.60;1.42;;;;;;;5.93;96.40;100906.19;6189224;23;20724;-68
2023/11/17 12:16:58;;;;;;;3.13;1.67;;;;;;;5.90;96.25;100907.38;6191621;23;20177;-68
2023/11/17 12:19:30;;;;;;;3.28;2.30;;;;;;;5.95;96.01;100904.16;6189274;23;20208;-68
2023/11/17 12:22:00;;;;;;;1.50;1.20;;;;;;;6.03;96.06;100918.41;6189912;23;20160;-68
2023/11/17 12:24:33;;;;;;;4.35;2.15;;;;;;;6.02;96.07;100910.50;6189786;23;20261;-69
2023/11/17 12:27:05;;;;;;;1.73;1.45;;;;;;;5.91;96.33;100913.56;6189459;23;20236;-68
2023/11/17 12:29:36;;;;;;;2.67;1.50;;;;;;;5.85;96.10;100915.06;6190030;23;20230;-69
2023/11/17 12:32:07;;;;;;;2.00;1.40;;;;;;;5.86;96.11;100918.56;6191484;23;20185;-69